EGPK/PIK METAR and TAF weather

Enter ICAO airport designator
Station Type Date Time Source
EGPK METAR 2018/09/20 18:50 UTC NOAA

EGPK 201850Z 05002KT 9999 SCT018 SCT038 11/07 Q0998


Station Type Date Time Source
EGPK Decoded METAR 2018/09/20 18:50 UTC NOAA

Prestwick Airport, United Kingdom (EGPK) 55-30N 004-35W 0M
Sep 20, 2018 - 02:50 PM EDT / 2018.09.20 1850 UTC
Wind: from the NE (050 degrees) at 2 MPH (2 KT):0
Visibility: greater than 7 mile(s):0
Sky conditions: partly cloudy
Temperature: 51 F (11 C)
Dew Point: 44 F (7 C)
Relative Humidity: 76%
Pressure (altimeter): 29.47 in. Hg (0998 hPa)
ob: EGPK 201850Z 05002KT 9999 SCT018 SCT038 11/07 Q0998
cycle: 19

Station Type Date Time Source
EGPK TAF 2018/09/20 18:15 UTC NOAA

TAF EGPK 201652Z 2018/2118 10005KT 9999 SCT020
TEMPO 2018/2106 6000 RA
BECMG 2100/2103 30010KT PROB30
TEMPO 2102/2105 4000 +RA BKN012 PROB40
TEMPO 2106/2118 6000 SHRA
BECMG 2112/2115 31015G25KT


Example: see airport list